Sadan Bayraktar — TCRB — position and weather

sailwx.info

Track history (hours):
 
Tides and Currents Weather Stations Pressure Air Temp Water Temp Dewpoint Dewpoint Depression Visibility Wind Speed Wind Dir Waves Ship Positions

Sadan Bayraktar

Last reported at 2016-May-29 00:07 UTC. Time now 2016-May-29 09:37 UTC.
Position N 39°24' W 000°17'.

Length 116 m; draft 5.4 m.

Type: Ship. MMSI: 271000653.

Date/timePositionNaut miles runAvg speedWind from/ knotsBaromVisibWave heightAir tempDewpointWater temp
2016-May-29 00:07N 39°24' W 000°17'0 0.0
2016-May-28 20:29N 39°24' W 000°17'0 0.0
2016-May-28 19:29N 39°24' W 000°17'0 0.1
2016-May-28 17:26N 39°24' W 000°18'0 0.0
2016-May-28 16:26N 39°24' W 000°18'0 0.0
2016-May-28 15:26N 39°24' W 000°18'0 0.0
2016-May-28 14:32N 39°24' W 000°18'0 0.0
2016-May-28 13:23N 39°24' W 000°18'0 0.3
2016-May-28 12:29N 39°24' W 000°17'0 0.0
2016-May-28 09:29N 39°24' W 000°17'0 0.0
2016-May-28 07:29N 39°24' W 000°18'0 0.0
2016-May-28 06:32N 39°24' W 000°18'0 0.0
2016-May-28 04:29N 39°24' W 000°17'0 0.0
2016-May-27 16:31N 39°24' W 000°18'0 0.0
2016-May-27 15:31N 39°24' W 000°18'0 0.0
2016-May-27 14:25N 39°24' W 000°18'0 0.0
2016-May-27 13:31N 39°24' W 000°18'0 0.0
2016-May-27 09:22N 39°24' W 000°18'0 0.0
2016-May-26 09:34N 39°24' W 000°18'78 9.7
2016-May-26 01:30N 38°11' E 000°18'4112.4
2016-May-25 22:12N 37°32' E 000°02'1212.5
2016-May-25 21:14N 37°20' W 000°02'1012.5
2016-May-25 20:27N 37°11' W 000°05'1212.5
2016-May-25 19:27N 36°59' W 000°09'1412.4
2016-May-25 18:22N 36°45' W 000°12'66 1.7
2016-May-24 03:11N 35°43' W 000°38'0 0.0
2016-May-22 19:27N 35°43' W 000°38'2 1.7
2016-May-22 18:33N 35°44' W 000°37'1 0.8
2016-May-22 17:33N 35°44' W 000°38'0 0.2
2016-May-22 16:31N 35°44' W 000°38'0 0.0
2016-May-22 15:31N 35°44' W 000°38'0 0.0
2016-May-22 14:29N 35°44' W 000°38'0 0.0
2016-May-22 13:29N 35°44' W 000°38'0 0.0
2016-May-22 12:28N 35°44' W 000°38'0 0.0
2016-May-22 11:10N 35°44' W 000°38'0 0.0
2016-May-22 04:29N 35°44' W 000°38'0 0.0
2016-May-22 00:29N 35°44' W 000°38'0 0.0
2016-May-21 22:03N 35°44' W 000°38'0 0.0
2016-May-21 21:33N 35°44' W 000°38'0 0.0
2016-May-21 20:33N 35°44' W 000°38'0 0.0
2016-May-21 19:27N 35°44' W 000°38'0 0.0
2016-May-21 18:33N 35°44' W 000°38'0 0.0
2016-May-21 17:33N 35°44' W 000°38'0 0.0
2016-May-21 16:10N 35°44' W 000°38'0 0.0
2016-May-21 15:28N 35°44' W 000°38'0 0.0
2016-May-21 14:28N 35°44' W 000°38'0 0.1
2016-May-21 13:17N 35°44' W 000°38'0 0.0
2016-May-21 12:29N 35°44' W 000°38'2 0.9
2016-May-21 10:33N 35°46' W 000°37'1211.8
2016-May-21 09:33N 35°57' W 000°33'1212.2
2016-May-21 08:33N 36°08' W 000°27'4012.4
2016-May-21 05:19N 36°47' W 000°15'912.0
2016-May-21 04:33N 36°56' W 000°13'1212.2
2016-May-21 03:33N 37°08' W 000°09'1811.9
2016-May-21 02:05N 37°25' W 000°03'1111.7
2016-May-21 01:09N 37°35' E 000°01'2211.6
2016-May-20 23:13N 37°57' E 000°06'811.9
2016-May-20 22:33N 38°05' E 000°08'1712.5
2016-May-20 21:10N 38°22' E 000°13'912.0
2016-May-20 20:27N 38°30' E 000°16'60 9.9
2016-May-20 14:23N 39°25' W 000°16'3 3.9
2016-May-20 13:32N 39°27' W 000°19'0 0.0
2016-May-20 12:32N 39°27' W 000°19'0 0.0
2016-May-20 11:32N 39°27' W 000°19'0 0.0
2016-May-20 10:32N 39°27' W 000°19'0 0.0
2016-May-20 09:32N 39°27' W 000°19'0 0.0
2016-May-20 08:32N 39°27' W 000°19'0 0.0
2016-May-20 07:29N 39°27' W 000°19'0 0.0
2016-May-20 06:26N 39°27' W 000°19'0 0.0
2016-May-20 05:32N 39°27' W 000°19'0 0.0
2016-May-20 04:29N 39°27' W 000°19'0 0.0
2016-May-20 03:26N 39°27' W 000°19'0 0.0
2016-May-20 02:32N 39°27' W 000°19'0 0.0
2016-May-20 01:14N 39°27' W 000°19'0 0.0
2016-May-20 00:32N 39°27' W 000°19'0 0.0
2016-May-19 23:32N 39°27' W 000°19'0 0.0
2016-May-19 20:20N 39°27' W 000°19'0 0.0
2016-May-19 19:26N 39°27' W 000°19'0 0.0
2016-May-19 18:26N 39°27' W 000°19'3 3.2
2016-May-19 17:30N 39°25' W 000°17'5 4.4
2016-May-19 16:28N 39°28' W 000°12'1 1.1
2016-May-19 15:33N 39°27' W 000°12'1 1.1
2016-May-19 14:32N 39°26' W 000°12'2 2.2
2016-May-19 13:31N 39°25' W 000°14'7410.6
2016-May-19 06:32N 38°14' E 000°17'1212.3
2016-May-19 05:33N 38°03' E 000°13'1212.3
2016-May-19 04:33N 37°51' E 000°09'1312.6
2016-May-19 03:33N 37°39' E 000°05'1312.4
2016-May-19 02:33N 37°27' E 000°01'1212.2
2016-May-19 01:34N 37°15' W 000°03'1212.2
2016-May-19 00:33N 37°03' W 000°06'  
Track history (hours):
 
Tides and Currents Weather Stations Pressure Air Temp Water Temp Dewpoint Dewpoint Depression Visibility Wind Speed Wind Dir Waves Ship Positions

Sadan Bayraktar

Last reported at 2016-May-29 00:07 UTC. Time now 2016-May-29 09:37 UTC.
Position N 39°24' W 000°17'.

Length 116 m; draft 5.4 m.

Type: Ship. MMSI: 271000653.

Date/timePositionNaut miles runAvg speedWind from/ knotsBaromVisibWave heightAir tempDewpointWater temp
2016-May-29 00:07N 39°24' W 000°17'0 0.0
2016-May-28 20:29N 39°24' W 000°17'0 0.0
2016-May-28 19:29N 39°24' W 000°17'0 0.1
2016-May-28 17:26N 39°24' W 000°18'0 0.0
2016-May-28 16:26N 39°24' W 000°18'0 0.0
2016-May-28 15:26N 39°24' W 000°18'0 0.0
2016-May-28 14:32N 39°24' W 000°18'0 0.0
2016-May-28 13:23N 39°24' W 000°18'0 0.3
2016-May-28 12:29N 39°24' W 000°17'0 0.0
2016-May-28 09:29N 39°24' W 000°17'0 0.0
2016-May-28 07:29N 39°24' W 000°18'0 0.0
2016-May-28 06:32N 39°24' W 000°18'0 0.0
2016-May-28 04:29N 39°24' W 000°17'0 0.0
2016-May-27 16:31N 39°24' W 000°18'0 0.0
2016-May-27 15:31N 39°24' W 000°18'0 0.0
2016-May-27 14:25N 39°24' W 000°18'0 0.0
2016-May-27 13:31N 39°24' W 000°18'0 0.0
2016-May-27 09:22N 39°24' W 000°18'0 0.0
2016-May-26 09:34N 39°24' W 000°18'78 9.7
2016-May-26 01:30N 38°11' E 000°18'4112.4
2016-May-25 22:12N 37°32' E 000°02'1212.5
2016-May-25 21:14N 37°20' W 000°02'1012.5
2016-May-25 20:27N 37°11' W 000°05'1212.5
2016-May-25 19:27N 36°59' W 000°09'1412.4
2016-May-25 18:22N 36°45' W 000°12'66 1.7
2016-May-24 03:11N 35°43' W 000°38'0 0.0
2016-May-22 19:27N 35°43' W 000°38'2 1.7
2016-May-22 18:33N 35°44' W 000°37'1 0.8
2016-May-22 17:33N 35°44' W 000°38'0 0.2
2016-May-22 16:31N 35°44' W 000°38'0 0.0
2016-May-22 15:31N 35°44' W 000°38'0 0.0
2016-May-22 14:29N 35°44' W 000°38'0 0.0
2016-May-22 13:29N 35°44' W 000°38'0 0.0
2016-May-22 12:28N 35°44' W 000°38'0 0.0
2016-May-22 11:10N 35°44' W 000°38'0 0.0
2016-May-22 04:29N 35°44' W 000°38'0 0.0
2016-May-22 00:29N 35°44' W 000°38'0 0.0
2016-May-21 22:03N 35°44' W 000°38'0 0.0
2016-May-21 21:33N 35°44' W 000°38'0 0.0
2016-May-21 20:33N 35°44' W 000°38'0 0.0
2016-May-21 19:27N 35°44' W 000°38'0 0.0
2016-May-21 18:33N 35°44' W 000°38'0 0.0
2016-May-21 17:33N 35°44' W 000°38'0 0.0
2016-May-21 16:10N 35°44' W 000°38'0 0.0
2016-May-21 15:28N 35°44' W 000°38'0 0.0
2016-May-21 14:28N 35°44' W 000°38'0 0.1
2016-May-21 13:17N 35°44' W 000°38'0 0.0
2016-May-21 12:29N 35°44' W 000°38'2 0.9
2016-May-21 10:33N 35°46' W 000°37'1211.8
2016-May-21 09:33N 35°57' W 000°33'1212.2
2016-May-21 08:33N 36°08' W 000°27'4012.4
2016-May-21 05:19N 36°47' W 000°15'912.0
2016-May-21 04:33N 36°56' W 000°13'1212.2
2016-May-21 03:33N 37°08' W 000°09'1811.9
2016-May-21 02:05N 37°25' W 000°03'1111.7
2016-May-21 01:09N 37°35' E 000°01'2211.6
2016-May-20 23:13N 37°57' E 000°06'811.9
2016-May-20 22:33N 38°05' E 000°08'1712.5
2016-May-20 21:10N 38°22' E 000°13'912.0
2016-May-20 20:27N 38°30' E 000°16'60 9.9
2016-May-20 14:23N 39°25' W 000°16'3 3.9
2016-May-20 13:32N 39°27' W 000°19'0 0.0
2016-May-20 12:32N 39°27' W 000°19'0 0.0
2016-May-20 11:32N 39°27' W 000°19'0 0.0
2016-May-20 10:32N 39°27' W 000°19'0 0.0
2016-May-20 09:32N 39°27' W 000°19'0 0.0
2016-May-20 08:32N 39°27' W 000°19'0 0.0
2016-May-20 07:29N 39°27' W 000°19'0 0.0
2016-May-20 06:26N 39°27' W 000°19'0 0.0
2016-May-20 05:32N 39°27' W 000°19'0 0.0
2016-May-20 04:29N 39°27' W 000°19'0 0.0
2016-May-20 03:26N 39°27' W 000°19'0 0.0
2016-May-20 02:32N 39°27' W 000°19'0 0.0
2016-May-20 01:14N 39°27' W 000°19'0 0.0
2016-May-20 00:32N 39°27' W 000°19'0 0.0
2016-May-19 23:32N 39°27' W 000°19'0 0.0
2016-May-19 20:20N 39°27' W 000°19'0 0.0
2016-May-19 19:26N 39°27' W 000°19'0 0.0
2016-May-19 18:26N 39°27' W 000°19'3 3.2
2016-May-19 17:30N 39°25' W 000°17'5 4.4
2016-May-19 16:28N 39°28' W 000°12'1 1.1
2016-May-19 15:33N 39°27' W 000°12'1 1.1
2016-May-19 14:32N 39°26' W 000°12'2 2.2
2016-May-19 13:31N 39°25' W 000°14'7410.6
2016-May-19 06:32N 38°14' E 000°17'1212.3
2016-May-19 05:33N 38°03' E 000°13'1212.3
2016-May-19 04:33N 37°51' E 000°09'1312.6
2016-May-19 03:33N 37°39' E 000°05'1312.4
2016-May-19 02:33N 37°27' E 000°01'1212.2
2016-May-19 01:34N 37°15' W 000°03'1212.2
2016-May-19 00:33N 37°03' W 000°06'  

Dump ship's entire track history